ADDS METAR Data INFO
IDs: Format: Raw Decoded Include TAF

Data at: 0046 UTC 22 Oct 2017

KMUT 220035Z AUTO 15012G21KT 10SM CLR 23/16 A2986 RMK AO2
KMUT 220015Z AUTO 16014G20KT 10SM CLR 24/16 A2987 RMK AO2
KMUT 212355Z AUTO 12.29166712G18KT 10SM SCT085 24/16 A2987 RMK AO2
KMUT 212335Z AUTO 16011G16KT 10SM OVC080 24/16 A2987 RMK AO2
KMUT 212315Z AUTO 17011KT 10SM OVC080 25/16 A2986 RMK AO2
KMUT 212255Z AUTO 15009KT FEW055 OVC080 25/16 A2986 RMK AO2
KMUT 212235Z AUTO 19014G19KT 10SM BKN055 OVC080 26/15 A2986 RMK AO2
KMUT 212215Z AUTO 17010G16KT 10SM OVC080 26/16 A2986 RMK AO2
KMUT 212155Z AUTO 17011G16KT 10SM FEW050 SCT060 OVC075 26/16 A2986 RMK AO2
KMUT 212135Z AUTO 18012KT 10SM BKN055 BKN065 OVC070 26/16 A2986 RMK AO2
KMUT 212115Z AUTO 17012G18KT 10SM BKN050 OVC060 26/16 A2986 RMK AO2
KMUT 212055Z AUTO 18015KT 10SM SCT048 OVC055 26/16 A2986 RMK AO2
KMUT 212035Z AUTO 17014G20KT 10SM BKN050 OVC055 26/16 A2985 RMK AO2
KMUT 212015Z AUTO 18016G23KT 10SM BKN049 OVC055 26/16 A2984 RMK AO2
KMUT 211955Z AUTO 16017G22KT 10SM BKN048 BKN055 27/16 A2985 RMK AO2
KMUT 211935Z AUTO 17016G22KT 10SM BKN046 27/16 A2985 RMK AO2
KMUT 211915Z AUTO 16016G24KT 10SM SCT044 26/16 A2985 RMK AO2
KMUT 211855Z AUTO 16015G23KT 10SM CLR 26/15 A2986 RMK AO2
KMUT 211835Z AUTO 16016G25KT 10SM CLR 25/15 A2986 RMK AO2
KMUT 211815Z AUTO 16018G25KT 10SM CLR 26/15 A2986 RMK AO2
KMUT 211755Z AUTO 18019G26KT 10SM CLR 25/15 A2988 RMK AO2
KMUT 211735Z AUTO 18016G24KT 10SM CLR 25/15 A2988 RMK AO2
KMUT 211715Z AUTO 18014G23KT 10SM CLR 25/15 A2989 RMK AO2
KMUT 211655Z AUTO 18016G22KT 10SM CLR 25/14 A2990 RMK AO2
KMUT 211635Z AUTO 20022KT 10SM CLR 24/14 A2990 RMK AO2
KMUT 211615Z AUTO 19014KT 10SM CLR 24/13 A2992 RMK AO2
KMUT 211555Z AUTO 18017G23KT 10SM CLR 22/13 A2993 RMK AO2
KMUT 211535Z AUTO 18014G26KT 10SM FEW100 22/13 A2993 RMK AO2
KMUT 211515Z AUTO 18018KT 10SM CLR 21/12 A2993 RMK AO2
KMUT 211455Z AUTO 18018G28KT 10SM CLR 21/12 A2993 RMK AO2
KMUT 211435Z AUTO 18015G23KT 10SM CLR 20/12 A2994 RMK AO2
KMUT 211415Z AUTO 17014G20KT 10SM CLR 19/12 A2994 RMK AO2
KMUT 211355Z AUTO 17012KT 10SM CLR 18/11 A2994 RMK AO2
KMUT 211335Z AUTO 17013KT 10SM CLR 18/11 A2994 RMK AO2
KMUT 211315Z AUTO 16011KT 10SM CLR 17/11 A2993 RMK AO2
KMUT 211255Z AUTO 16008KT 10SM CLR 16/11 A2993 RMK AO2
KMUT 211235Z AUTO 17011KT 10SM CLR 16/11 A2993 RMK AO2
KMUT 211215Z AUTO 16009G15KT 10SM CLR 17/11 A2993 RMK AO2
KMUT 211155Z AUTO 16010KT 10SM FEW060 17/11 A2993 RMK AO2
KMUT 211135Z AUTO 16010KT 10SM CLR 17/11 A2994 RMK AO2
KMUT 211115Z AUTO 17011KT 10SM CLR 17/11 A2994 RMK AO2
KMUT 211055Z AUTO 16012KT 10SM SCT055 SCT090 17/11 A2993 RMK AO2
KMUT 211035Z AUTO 16010KT 10SM FEW045 BKN055 BKN090 17/11 A2993 RMK AO2
KMUT 211015Z AUTO 17010KT 10SM CLR 17/11 A2993 RMK AO2
KMUT 210955Z AUTO 16011KT 10SM CLR 17/11 A2992 RMK AO2
KMUT 210935Z AUTO 17010KT 10SM CLR 17/11 A2993 RMK AO2
KMUT 210915Z AUTO 16012KT 10SM FEW024 17/11 A2992 RMK AO2
KMUT 210855Z AUTO 16010KT 10SM BKN024 17/11 A2993 RMK AO2
KMUT 210835Z AUTO 17011KT 10SM BKN024 17/11 A2993 RMK AO2
KMUT 210815Z AUTO 16011KT 10SM BKN023 OVC095 17/10 A2994 RMK AO2
KMUT 210755Z AUTO 16010KT 10SM SCT022 OVC090 17/10 A2995 RMK AO2
KMUT 210735Z AUTO 16009KT 10SM OVC022 17/10 A2995 RMK AO2
KMUT 210715Z AUTO 16007KT 10SM OVC023 17/10 A2996 RMK AO2
KMUT 210655Z AUTO 16007KT 10SM BKN024 17/10 A2996 RMK AO2
KMUT 210635Z AUTO 15007KT 10SM CLR 18/10 A2995 RMK AO2
KMUT 210615Z AUTO 15008KT 10SM CLR 18/10 A2996 RMK AO2
KMUT 210555Z AUTO 15008KT 10SM FEW100 18/10 A2995 RMK AO2
KMUT 210535Z AUTO 16006KT 10SM FEW100 18/10 A2996 RMK AO2
KMUT 210515Z AUTO 16008G13KT 10SM CLR 19/10 A2995 RMK AO2
KMUT 210455Z AUTO 16009KT 10SM CLR 19/10 A2995 RMK AO2
KMUT 210435Z AUTO 16008KT 10SM CLR 19/10 A2995 RMK AO2
KMUT 210415Z AUTO 16006KT 10SM CLR 19/10 A2995 RMK AO2
KMUT 210355Z AUTO 16008KT 10SM CLR 19/09 A2995 RMK AO2
KMUT 210335Z AUTO 15008KT 10SM CLR 19/09 A2995 RMK AO2
KMUT 210315Z AUTO 17010G15KT 10SM FEW070 FEW100 SCT120 19/09 A2995 RMK AO2
KMUT 210255Z AUTO 17010G16KT 10SM FEW120 19/09 A2995 RMK AO2
KMUT 210235Z AUTO 16013G21KT 10SM CLR 20/09 A2995 RMK AO2
KMUT 210215Z AUTO 16012G19KT 10SM CLR 20/09 A2994 RMK AO2
KMUT 210155Z AUTO 16010KT 10SM CLR 19/09 A2994 RMK AO2
KMUT 210135Z AUTO 15009G14KT 10SM CLR 19/09 A2994 RMK AO2
KMUT 210115Z AUTO 15008KT 10SM CLR 20/08 A2995 RMK AO2
KMUT 210055Z AUTO 15010KT 10SM CLR 20/08 A2995 RMK AO2
KMUT 210035Z AUTO 16008KT 10SM CLR 19/09 A2996 RMK AO2
KMUT 210015Z AUTO 17004KT 10SM CLR 19/09 A2996 RMK AO2
KMUT 202355Z AUTO 17005KT 10SM CLR 20/09 A2996 RMK AO2
KMUT 202335Z AUTO 17007KT 10SM CLR 21/09 A2996 RMK AO2
KMUT 202315Z AUTO 15008KT 10SM CLR 21/09 A2995 RMK AO2
KMUT 202255Z AUTO 15008KT 10SM CLR 22/09 A2995 RMK AO2
KMUT 202235Z AUTO 15009KT 10SM CLR 22/09 A2995 RMK AO2
KMUT 202215Z AUTO 16008G14KT 10SM CLR 23/08 A2996 RMK AO2
KMUT 202155Z AUTO 17009G16KT 10SM CLR 23/08 A2997 RMK AO2
KMUT 202135Z AUTO 17015KT 10SM CLR 24/08 A2997 RMK AO2
KMUT 202115Z AUTO 16012G22KT 10SM CLR 25/07 A2997 RMK AO2
KMUT 202055Z AUTO 17016KT 10SM CLR 25/09 A2997 RMK AO2
KMUT 202035Z AUTO 17011G18KT 10SM CLR 25/10 A2998 RMK AO2
KMUT 202015Z AUTO 16015G20KT 10SM CLR 25/09 A2998 RMK AO2
KMUT 201955Z AUTO 16014KT 10SM CLR 25/09 A2999 RMK AO2
KMUT 201935Z AUTO 17016G22KT 10SM CLR 25/07 A3000 RMK AO2
KMUT 201915Z AUTO 15010G17KT 10SM CLR 24/10 A3001 RMK AO2
KMUT 201855Z AUTO 16010G17KT CLR 24/10 A3002 RMK AO2
KMUT 201835Z AUTO 16012KT 10SM CLR 24/10 A3003 RMK AO2
KMUT 201815Z AUTO 15009G16KT 10SM CLR 23/11 A3005 RMK AO2
KMUT 201755Z AUTO 17011KT 10SM CLR 24/11 A3006 RMK AO2
KMUT 201735Z AUTO 15007G12KT 10SM CLR 23/12 A3007 RMK AO2
KMUT 201715Z AUTO 16007KT 150V210 10SM CLR 23/12 A3008 RMK AO2
KMUT 201655Z AUTO 17008G14KT 10SM CLR 22/12 A3009 RMK AO2
KMUT 201635Z AUTO 16008G13KT 10SM CLR 21/12 A3010 RMK AO2
KMUT 201615Z AUTO 16008KT 10SM CLR 21/12 A3011 RMK AO2
KMUT 201555Z AUTO 16007KT 10SM CLR 20/12 A3012 RMK AO2
KMUT 201535Z AUTO 14007KT 10SM CLR 19/12 A3012 RMK AO2
KMUT 201515Z AUTO 16006KT 10SM CLR 18/12 A3012 RMK AO2
KMUT 201455Z AUTO 16007KT 10SM CLR 17/12 A3013 RMK AO2
KMUT 201435Z AUTO 16009KT 10SM CLR 16/12 A3014 RMK AO2
KMUT 201415Z AUTO 17007KT 10SM CLR 14/12 A3014 RMK AO2
KMUT 201355Z AUTO 00000KT 10SM CLR 12/11 A3014 RMK AO2
KMUT 201335Z AUTO 00000KT 10SM CLR 10/09 A3014 RMK AO2
KMUT 201315Z AUTO 00000KT 9SM CLR 08/07 A3014 RMK AO2
KMUT 201255Z AUTO 00000KT 1/4SM FG VV002 07/07 A3013 RMK AO2